sensor_id;sensor_type;location;lat;lon;timestamp;pressure;altitude;pressure_sealevel;temperature;humidity
46778;BME280;32536;47.128;8.746;2024-02-26T00:01:58;89715.81;;;8.61;46.92
46778;BME280;32536;47.128;8.746;2024-02-26T00:04:24;89712.13;;;8.68;47.04
46778;BME280;32536;47.128;8.746;2024-02-26T00:06:51;89721.78;;;8.74;47.32
46778;BME280;32536;47.128;8.746;2024-02-26T00:09:20;89722.38;;;8.78;47.17
46778;BME280;32536;47.128;8.746;2024-02-26T00:11:46;89712.88;;;8.77;47.16
46778;BME280;32536;47.128;8.746;2024-02-26T00:14:13;89718.53;;;8.79;47.23
46778;BME280;32536;47.128;8.746;2024-02-26T00:16:40;89713.94;;;8.80;47.22
46778;BME280;32536;47.128;8.746;2024-02-26T00:19:07;89712.75;;;8.81;47.17
46778;BME280;32536;47.128;8.746;2024-02-26T00:21:34;89712.03;;;8.80;47.38
46778;BME280;32536;47.128;8.746;2024-02-26T00:24:01;89710.53;;;8.79;47.18
46778;BME280;32536;47.128;8.746;2024-02-26T00:26:27;89706.53;;;8.84;47.49
46778;BME280;32536;47.128;8.746;2024-02-26T00:28:54;89709.53;;;8.86;47.04
46778;BME280;32536;47.128;8.746;2024-02-26T00:31:21;89720.50;;;8.88;46.74
46778;BME280;32536;47.128;8.746;2024-02-26T00:33:48;89731.19;;;8.88;46.77
46778;BME280;32536;47.128;8.746;2024-02-26T00:36:14;89727.78;;;8.88;47.23
46778;BME280;32536;47.128;8.746;2024-02-26T00:38:41;89720.94;;;8.87;47.21
46778;BME280;32536;47.128;8.746;2024-02-26T00:41:10;89724.34;;;8.87;47.44
46778;BME280;32536;47.128;8.746;2024-02-26T00:43:37;89720.50;;;8.88;47.22
46778;BME280;32536;47.128;8.746;2024-02-26T00:46:06;89719.31;;;8.89;47.45
46778;BME280;32536;47.128;8.746;2024-02-26T00:48:32;89730.31;;;8.91;47.26
46778;BME280;32536;47.128;8.746;2024-02-26T00:50:59;89729.00;;;8.96;47.39
46778;BME280;32536;47.128;8.746;2024-02-26T00:53:26;89728.53;;;8.97;47.23
46778;BME280;32536;47.128;8.746;2024-02-26T00:55:54;89721.25;;;8.98;47.30
46778;BME280;32536;47.128;8.746;2024-02-26T00:58:21;89720.84;;;9.00;47.10
46778;BME280;32536;47.128;8.746;2024-02-26T01:00:48;89727.66;;;9.01;47.00
46778;BME280;32536;47.128;8.746;2024-02-26T01:03:15;89724.97;;;9.01;46.84
46778;BME280;32536;47.128;8.746;2024-02-26T01:05:41;89728.69;;;9.03;46.63
46778;BME280;32536;47.128;8.746;2024-02-26T01:08:08;89723.34;;;9.03;46.68
46778;BME280;32536;47.128;8.746;2024-02-26T01:10:35;89729.13;;;9.02;46.72
46778;BME280;32536;47.128;8.746;2024-02-26T01:13:02;89737.91;;;9.02;46.98
46778;BME280;32536;47.128;8.746;2024-02-26T01:15:29;89736.41;;;9.01;47.17
46778;BME280;32536;47.128;8.746;2024-02-26T01:17:55;89737.28;;;8.98;47.03
46778;BME280;32536;47.128;8.746;2024-02-26T01:20:22;89735.06;;;8.96;46.99
46778;BME280;32536;47.128;8.746;2024-02-26T01:22:49;89738.47;;;8.97;47.42
46778;BME280;32536;47.128;8.746;2024-02-26T01:25:16;89741.59;;;8.95;46.92
46778;BME280;32536;47.128;8.746;2024-02-26T01:27:43;89746.63;;;8.93;46.84
46778;BME280;32536;47.128;8.746;2024-02-26T01:30:10;89737.00;;;8.96;47.03
46778;BME280;32536;47.128;8.746;2024-02-26T01:32:37;89750.63;;;8.98;47.31
46778;BME280;32536;47.128;8.746;2024-02-26T01:35:07;89743.06;;;8.96;46.79
46778;BME280;32536;47.128;8.746;2024-02-26T01:37:36;89736.56;;;8.97;46.71
46778;BME280;32536;47.128;8.746;2024-02-26T01:40:04;89730.78;;;8.99;46.79
46778;BME280;32536;47.128;8.746;2024-02-26T01:42:32;89728.09;;;8.99;47.15
46778;BME280;32536;47.128;8.746;2024-02-26T01:44:59;89736.88;;;9.00;47.02
46778;BME280;32536;47.128;8.746;2024-02-26T01:47:27;89725.28;;;9.03;46.89
46778;BME280;32536;47.128;8.746;2024-02-26T01:49:54;89732.56;;;9.02;47.19
46778;BME280;32536;47.128;8.746;2024-02-26T01:52:21;89728.41;;;9.01;46.84
46778;BME280;32536;47.128;8.746;2024-02-26T01:54:48;89726.00;;;8.94;46.98
46778;BME280;32536;47.128;8.746;2024-02-26T01:57:15;89726.16;;;8.90;47.12
46778;BME280;32536;47.128;8.746;2024-02-26T01:59:42;89723.16;;;8.88;46.90
46778;BME280;32536;47.128;8.746;2024-02-26T02:02:10;89731.75;;;8.83;47.34
46778;BME280;32536;47.128;8.746;2024-02-26T02:04:38;89728.34;;;8.83;47.41
46778;BME280;32536;47.128;8.746;2024-02-26T02:07:05;89725.56;;;8.86;47.05
46778;BME280;32536;47.128;8.746;2024-02-26T02:09:32;89723.91;;;8.89;47.18
46778;BME280;32536;47.128;8.746;2024-02-26T02:12:00;89729.69;;;8.87;47.15
46778;BME280;32536;47.128;8.746;2024-02-26T02:14:27;89728.81;;;8.90;46.98
46778;BME280;32536;47.128;8.746;2024-02-26T02:16:54;89742.03;;;8.94;46.89
46778;BME280;32536;47.128;8.746;2024-02-26T02:19:20;89731.66;;;8.96;47.07
46778;BME280;32536;47.128;8.746;2024-02-26T02:21:47;89720.97;;;8.96;47.07
46778;BME280;32536;47.128;8.746;2024-02-26T02:24:14;89725.25;;;8.93;47.10
46778;BME280;32536;47.128;8.746;2024-02-26T02:26:41;89724.97;;;8.91;47.31
46778;BME280;32536;47.128;8.746;2024-02-26T02:29:08;89716.94;;;8.91;47.25
46778;BME280;32536;47.128;8.746;2024-02-26T02:31:35;89714.28;;;8.91;47.12
46778;BME280;32536;47.128;8.746;2024-02-26T02:34:02;89713.97;;;8.89;47.16
46778;BME280;32536;47.128;8.746;2024-02-26T02:36:29;89711.31;;;8.89;47.39
46778;BME280;32536;47.128;8.746;2024-02-26T02:38:55;89711.31;;;8.89;47.11
46778;BME280;32536;47.128;8.746;2024-02-26T02:41:22;89709.69;;;8.92;47.20
46778;BME280;32536;47.128;8.746;2024-02-26T02:43:49;89699.63;;;8.96;46.92
46778;BME280;32536;47.128;8.746;2024-02-26T02:46:16;89696.50;;;8.97;47.22
46778;BME280;32536;47.128;8.746;2024-02-26T02:48:42;89687.44;;;8.95;47.21
46778;BME280;32536;47.128;8.746;2024-02-26T02:51:10;89690.53;;;8.93;46.57
46778;BME280;32536;47.128;8.746;2024-02-26T02:53:36;89692.47;;;8.93;47.11
46778;BME280;32536;47.128;8.746;2024-02-26T02:56:03;89690.53;;;8.93;47.00
46778;BME280;32536;47.128;8.746;2024-02-26T02:58:30;89689.06;;;8.92;46.36
46778;BME280;32536;47.128;8.746;2024-02-26T03:00:57;89691.13;;;8.88;46.11
46778;BME280;32536;47.128;8.746;2024-02-26T03:03:26;89689.63;;;8.87;46.63
46778;BME280;32536;47.128;8.746;2024-02-26T03:05:54;89685.50;;;8.86;47.03
46778;BME280;32536;47.128;8.746;2024-02-26T03:08:21;89682.53;;;8.84;46.73
46778;BME280;32536;47.128;8.746;2024-02-26T03:10:48;89679.97;;;8.80;46.73
46778;BME280;32536;47.128;8.746;2024-02-26T03:13:14;89686.06;;;8.81;47.03
46778;BME280;32536;47.128;8.746;2024-02-26T03:15:41;89681.75;;;8.84;47.23
46778;BME280;32536;47.128;8.746;2024-02-26T03:18:08;89685.78;;;8.88;47.01
46778;BME280;32536;47.128;8.746;2024-02-26T03:20:34;89667.72;;;8.92;47.07
46778;BME280;32536;47.128;8.746;2024-02-26T03:23:03;89658.06;;;8.95;46.97
46778;BME280;32536;47.128;8.746;2024-02-26T03:25:30;89650.47;;;8.93;46.60
46778;BME280;32536;47.128;8.746;2024-02-26T03:27:56;89666.63;;;8.90;46.45
46778;BME280;32536;47.128;8.746;2024-02-26T03:30:23;89664.41;;;8.79;45.67
46778;BME280;32536;47.128;8.746;2024-02-26T03:32:50;89663.66;;;8.69;46.32
46778;BME280;32536;47.128;8.746;2024-02-26T03:35:16;89659.00;;;8.60;46.56
46778;BME280;32536;47.128;8.746;2024-02-26T03:37:43;89665.81;;;8.52;46.07
46778;BME280;32536;47.128;8.746;2024-02-26T03:40:12;89660.28;;;8.46;46.10
46778;BME280;32536;47.128;8.746;2024-02-26T03:42:40;89670.63;;;8.44;46.17
46778;BME280;32536;47.128;8.746;2024-02-26T03:45:07;89667.34;;;8.40;46.10
46778;BME280;32536;47.128;8.746;2024-02-26T03:47:34;89666.91;;;8.32;46.18
46778;BME280;32536;47.128;8.746;2024-02-26T03:50:03;89663.59;;;8.28;46.55
46778;BME280;32536;47.128;8.746;2024-02-26T03:52:30;89670.88;;;8.28;46.37
46778;BME280;32536;47.128;8.746;2024-02-26T03:54:57;89661.97;;;8.31;46.18
46778;BME280;32536;47.128;8.746;2024-02-26T03:57:24;89667.19;;;8.34;46.25
46778;BME280;32536;47.128;8.746;2024-02-26T03:59:51;89668.97;;;8.38;46.61
46778;BME280;32536;47.128;8.746;2024-02-26T04:02:17;89672.69;;;8.40;46.12
46778;BME280;32536;47.128;8.746;2024-02-26T04:04:49;89676.53;;;8.39;45.95
46778;BME280;32536;47.128;8.746;2024-02-26T04:07:16;89677.84;;;8.34;45.89
46778;BME280;32536;47.128;8.746;2024-02-26T04:09:42;89683.63;;;8.33;46.50
46778;BME280;32536;47.128;8.746;2024-02-26T04:12:10;89685.44;;;8.36;46.16
46778;BME280;32536;47.128;8.746;2024-02-26T04:14:36;89693.00;;;8.38;46.69
46778;BME280;32536;47.128;8.746;2024-02-26T04:17:03;89698.78;;;8.36;46.75
46778;BME280;32536;47.128;8.746;2024-02-26T04:19:30;89696.41;;;8.38;46.63
46778;BME280;32536;47.128;8.746;2024-02-26T04:21:57;89705.75;;;8.43;46.72
46778;BME280;32536;47.128;8.746;2024-02-26T04:24:23;89703.72;;;8.47;46.95
46778;BME280;32536;47.128;8.746;2024-02-26T04:26:50;89712.16;;;8.45;46.75
46778;BME280;32536;47.128;8.746;2024-02-26T04:29:17;89704.72;;;8.40;47.09
46778;BME280;32536;47.128;8.746;2024-02-26T04:31:44;89711.66;;;8.38;47.21
46778;BME280;32536;47.128;8.746;2024-02-26T04:34:11;89714.47;;;8.34;46.99
46778;BME280;32536;47.128;8.746;2024-02-26T04:36:38;89713.97;;;8.26;47.27
46778;BME280;32536;47.128;8.746;2024-02-26T04:39:05;89714.66;;;8.17;47.21
46778;BME280;32536;47.128;8.746;2024-02-26T04:41:33;89716.72;;;8.13;47.32
46778;BME280;32536;47.128;8.746;2024-02-26T04:43:59;89714.91;;;8.10;47.69
46778;BME280;32536;47.128;8.746;2024-02-26T04:46:26;89711.19;;;8.08;47.36
46778;BME280;32536;47.128;8.746;2024-02-26T04:48:54;89719.66;;;8.06;47.51
46778;BME280;32536;47.128;8.746;2024-02-26T04:51:20;89731.03;;;8.07;47.25
46778;BME280;32536;47.128;8.746;2024-02-26T04:53:47;89733.72;;;8.07;47.46
46778;BME280;32536;47.128;8.746;2024-02-26T04:56:14;89716.25;;;8.06;47.25
46778;BME280;32536;47.128;8.746;2024-02-26T04:58:41;89735.97;;;8.08;47.49
46778;BME280;32536;47.128;8.746;2024-02-26T05:01:07;89744.88;;;8.14;47.21
46778;BME280;32536;47.128;8.746;2024-02-26T05:03:35;89744.63;;;8.22;47.34
46778;BME280;32536;47.128;8.746;2024-02-26T05:06:02;89741.09;;;8.25;47.61
46778;BME280;32536;47.128;8.746;2024-02-26T05:08:30;89753.44;;;8.31;47.63
46778;BME280;32536;47.128;8.746;2024-02-26T05:10:59;89747.84;;;8.39;47.00
46778;BME280;32536;47.128;8.746;2024-02-26T05:13:26;89751.38;;;8.36;47.21
46778;BME280;32536;47.128;8.746;2024-02-26T05:15:53;89747.47;;;8.27;47.14
46778;BME280;32536;47.128;8.746;2024-02-26T05:18:21;89756.16;;;8.18;47.48
46778;BME280;32536;47.128;8.746;2024-02-26T05:20:48;89761.31;;;8.13;47.41
46778;BME280;32536;47.128;8.746;2024-02-26T05:23:15;89760.50;;;8.03;46.91
46778;BME280;32536;47.128;8.746;2024-02-26T05:25:42;89765.03;;;7.93;46.92
46778;BME280;32536;47.128;8.746;2024-02-26T05:28:11;89761.13;;;7.85;46.94
46778;BME280;32536;47.128;8.746;2024-02-26T05:30:38;89760.94;;;7.79;47.20
46778;BME280;32536;47.128;8.746;2024-02-26T05:33:05;89761.97;;;7.82;47.58
46778;BME280;32536;47.128;8.746;2024-02-26T05:35:32;89770.63;;;7.86;47.39
46778;BME280;32536;47.128;8.746;2024-02-26T05:37:59;89766.75;;;7.87;47.67
46778;BME280;32536;47.128;8.746;2024-02-26T05:40:26;89769.31;;;7.91;47.60
46778;BME280;32536;47.128;8.746;2024-02-26T05:42:52;89771.00;;;7.97;47.40
46778;BME280;32536;47.128;8.746;2024-02-26T05:45:19;89775.75;;;8.02;47.47
46778;BME280;32536;47.128;8.746;2024-02-26T05:47:46;89780.13;;;8.09;47.72
46778;BME280;32536;47.128;8.746;2024-02-26T05:50:13;89789.47;;;8.14;47.20
46778;BME280;32536;47.128;8.746;2024-02-26T05:52:41;89789.47;;;8.14;47.35
46778;BME280;32536;47.128;8.746;2024-02-26T05:55:08;89788.63;;;8.17;46.91
46778;BME280;32536;47.128;8.746;2024-02-26T05:57:35;89786.25;;;8.19;47.21
46778;BME280;32536;47.128;8.746;2024-02-26T06:00:03;89790.84;;;8.18;46.85
46778;BME280;32536;47.128;8.746;2024-02-26T06:02:30;89793.94;;;8.17;47.31
46778;BME280;32536;47.128;8.746;2024-02-26T06:04:57;89791.53;;;8.10;47.24
46778;BME280;32536;47.128;8.746;2024-02-26T06:07:24;89791.31;;;8.04;47.11
46778;BME280;32536;47.128;8.746;2024-02-26T06:09:51;89787.72;;;7.98;47.27
46778;BME280;32536;47.128;8.746;2024-02-26T06:12:18;89782.28;;;8.01;47.25
46778;BME280;32536;47.128;8.746;2024-02-26T06:14:45;89786.09;;;8.00;47.55
46778;BME280;32536;47.128;8.746;2024-02-26T06:17:11;89788.38;;;8.02;47.28
46778;BME280;32536;47.128;8.746;2024-02-26T06:19:38;89785.69;;;8.02;47.61
46778;BME280;32536;47.128;8.746;2024-02-26T06:22:05;89781.53;;;8.01;47.67
46778;BME280;32536;47.128;8.746;2024-02-26T06:24:32;89784.50;;;8.03;47.43
46778;BME280;32536;47.128;8.746;2024-02-26T06:26:59;89787.81;;;8.07;47.32
46778;BME280;32536;47.128;8.746;2024-02-26T06:29:25;89790.34;;;8.11;47.02
46778;BME280;32536;47.128;8.746;2024-02-26T06:31:52;89789.47;;;8.14;47.46
46778;BME280;32536;47.128;8.746;2024-02-26T06:34:19;89789.78;;;8.16;46.98
46778;BME280;32536;47.128;8.746;2024-02-26T06:36:46;89785.63;;;8.15;46.99
46778;BME280;32536;47.128;8.746;2024-02-26T06:39:12;89788.72;;;8.13;46.61
46778;BME280;32536;47.128;8.746;2024-02-26T06:41:41;89789.19;;;8.12;47.09
46778;BME280;32536;47.128;8.746;2024-02-26T06:44:08;89782.34;;;8.11;46.67
46778;BME280;32536;47.128;8.746;2024-02-26T06:46:35;89769.75;;;8.11;46.56
46778;BME280;32536;47.128;8.746;2024-02-26T06:49:02;89778.63;;;8.08;46.72
46778;BME280;32536;47.128;8.746;2024-02-26T06:51:28;89782.91;;;8.06;46.41
46778;BME280;32536;47.128;8.746;2024-02-26T06:53:55;89789.84;;;8.03;46.30
46778;BME280;32536;47.128;8.746;2024-02-26T06:56:22;89775.56;;;7.97;47.01
46778;BME280;32536;47.128;8.746;2024-02-26T06:58:48;89775.69;;;7.93;46.81
46778;BME280;32536;47.128;8.746;2024-02-26T07:01:15;89765.47;;;7.92;46.99
46778;BME280;32536;47.128;8.746;2024-02-26T07:03:42;89778.22;;;7.97;47.04
46778;BME280;32536;47.128;8.746;2024-02-26T07:06:09;89777.06;;;7.98;46.37
46778;BME280;32536;47.128;8.746;2024-02-26T07:08:37;89792.44;;;7.94;46.29
46778;BME280;32536;47.128;8.746;2024-02-26T07:11:07;89798.22;;;7.92;46.49
46778;BME280;32536;47.128;8.746;2024-02-26T07:13:35;89797.91;;;7.90;46.96
46778;BME280;32536;47.128;8.746;2024-02-26T07:16:02;89798.63;;;7.91;46.42
46778;BME280;32536;47.128;8.746;2024-02-26T07:18:29;89790.63;;;7.91;46.78
46778;BME280;32536;47.128;8.746;2024-02-26T07:20:56;89783.81;;;7.90;46.71
46778;BME280;32536;47.128;8.746;2024-02-26T07:23:23;89778.06;;;7.91;47.32
46778;BME280;32536;47.128;8.746;2024-02-26T07:25:49;89765.78;;;7.94;47.11
46778;BME280;32536;47.128;8.746;2024-02-26T07:28:19;89764.59;;;7.95;46.84
46778;BME280;32536;47.128;8.746;2024-02-26T07:30:45;89771.22;;;7.90;46.90
46778;BME280;32536;47.128;8.746;2024-02-26T07:33:12;89775.31;;;7.82;46.63
46778;BME280;32536;47.128;8.746;2024-02-26T07:35:39;89763.16;;;7.81;47.78
46778;BME280;32536;47.128;8.746;2024-02-26T07:38:06;89768.25;;;7.88;47.81
46778;BME280;32536;47.128;8.746;2024-02-26T07:40:32;89756.97;;;8.06;48.23
46778;BME280;32536;47.128;8.746;2024-02-26T07:42:59;89763.53;;;8.37;48.60
46778;BME280;32536;47.128;8.746;2024-02-26T07:45:26;89763.88;;;8.70;48.25
46778;BME280;32536;47.128;8.746;2024-02-26T07:47:53;89756.47;;;9.06;48.26
46778;BME280;32536;47.128;8.746;2024-02-26T07:50:19;89754.47;;;9.38;47.32
46778;BME280;32536;47.128;8.746;2024-02-26T07:52:46;89748.72;;;9.67;46.97
46778;BME280;32536;47.128;8.746;2024-02-26T07:55:13;89760.75;;;9.90;46.09
46778;BME280;32536;47.128;8.746;2024-02-26T07:57:43;89763.56;;;10.05;45.72
46778;BME280;32536;47.128;8.746;2024-02-26T08:00:10;89767.59;;;10.19;45.88
46778;BME280;32536;47.128;8.746;2024-02-26T08:02:37;89765.34;;;10.18;45.84
46778;BME280;32536;47.128;8.746;2024-02-26T08:05:04;89758.69;;;10.13;45.52
46778;BME280;32536;47.128;8.746;2024-02-26T08:07:31;89756.91;;;10.10;45.79
46778;BME280;32536;47.128;8.746;2024-02-26T08:09:58;89761.66;;;10.06;45.29
46778;BME280;32536;47.128;8.746;2024-02-26T08:12:24;89758.38;;;10.02;45.85
46778;BME280;32536;47.128;8.746;2024-02-26T08:14:51;89763.59;;;9.96;45.71
46778;BME280;32536;47.128;8.746;2024-02-26T08:17:18;89768.94;;;9.87;46.00
46778;BME280;32536;47.128;8.746;2024-02-26T08:19:45;89778.72;;;9.81;46.27
46778;BME280;32536;47.128;8.746;2024-02-26T08:22:11;89767.44;;;9.67;46.01
46778;BME280;32536;47.128;8.746;2024-02-26T08:24:42;89755.09;;;9.51;46.35
46778;BME280;32536;47.128;8.746;2024-02-26T08:27:09;89762.63;;;9.34;46.55
46778;BME280;32536;47.128;8.746;2024-02-26T08:29:36;89781.44;;;9.21;46.61
46778;BME280;32536;47.128;8.746;2024-02-26T08:32:03;89784.69;;;9.16;46.68
46778;BME280;32536;47.128;8.746;2024-02-26T08:34:31;89777.13;;;9.15;46.91
46778;BME280;32536;47.128;8.746;2024-02-26T08:36:58;89779.66;;;9.18;46.89
46778;BME280;32536;47.128;8.746;2024-02-26T08:39:24;89781.00;;;9.23;46.81
46778;BME280;32536;47.128;8.746;2024-02-26T08:41:51;89791.25;;;9.24;46.83
46778;BME280;32536;47.128;8.746;2024-02-26T08:44:18;89795.69;;;9.27;46.78
46778;BME280;32536;47.128;8.746;2024-02-26T08:46:45;89793.34;;;9.29;46.84
46778;BME280;32536;47.128;8.746;2024-02-26T08:49:12;89796.91;;;9.26;46.32
46778;BME280;32536;47.128;8.746;2024-02-26T08:51:42;89794.78;;;9.21;46.66
46778;BME280;32536;47.128;8.746;2024-02-26T08:54:11;89790.22;;;9.22;46.81
46778;BME280;32536;47.128;8.746;2024-02-26T08:56:38;89792.56;;;9.20;47.01
46778;BME280;32536;47.128;8.746;2024-02-26T08:59:05;89791.69;;;9.23;46.99
46778;BME280;32536;47.128;8.746;2024-02-26T09:01:31;89793.47;;;9.26;47.06
46778;BME280;32536;47.128;8.746;2024-02-26T09:03:58;89795.69;;;9.27;46.95
46778;BME280;32536;47.128;8.746;2024-02-26T09:06:25;89792.59;;;9.29;47.21
46778;BME280;32536;47.128;8.746;2024-02-26T09:08:52;89796.00;;;9.29;46.87
46778;BME280;32536;47.128;8.746;2024-02-26T09:11:19;89802.09;;;9.30;46.84
46778;BME280;32536;47.128;8.746;2024-02-26T09:13:45;89805.81;;;9.33;46.82
46778;BME280;32536;47.128;8.746;2024-02-26T09:16:12;89810.72;;;9.34;47.06
46778;BME280;32536;47.128;8.746;2024-02-26T09:18:39;89814.00;;;9.38;46.96
46778;BME280;32536;47.128;8.746;2024-02-26T09:21:06;89816.06;;;9.43;46.72
46778;BME280;32536;47.128;8.746;2024-02-26T09:23:33;89815.06;;;9.50;47.02
46778;BME280;32536;47.128;8.746;2024-02-26T09:26:00;89812.41;;;9.50;47.11
46778;BME280;32536;47.128;8.746;2024-02-26T09:28:27;89814.34;;;9.50;47.01
46778;BME280;32536;47.128;8.746;2024-02-26T09:30:57;89804.97;;;9.54;46.68
46778;BME280;32536;47.128;8.746;2024-02-26T09:33:23;89808.56;;;9.60;46.96
46778;BME280;32536;47.128;8.746;2024-02-26T09:35:50;89816.44;;;9.64;46.59
46778;BME280;32536;47.128;8.746;2024-02-26T09:38:17;89806.63;;;9.70;46.51
46778;BME280;32536;47.128;8.746;2024-02-26T09:40:44;89812.91;;;9.76;46.39
46778;BME280;32536;47.128;8.746;2024-02-26T09:43:14;89816.00;;;9.75;46.56
46778;BME280;32536;47.128;8.746;2024-02-26T09:45:42;89812.47;;;9.78;46.43
46778;BME280;32536;47.128;8.746;2024-02-26T09:48:10;89816.34;;;9.86;46.37
46778;BME280;32536;47.128;8.746;2024-02-26T09:50:37;89821.09;;;9.91;46.48
46778;BME280;32536;47.128;8.746;2024-02-26T09:53:04;89824.66;;;9.98;46.67
46778;BME280;32536;47.128;8.746;2024-02-26T09:55:33;89828.97;;;10.04;46.43
46778;BME280;32536;47.128;8.746;2024-02-26T09:58:00;89831.34;;;10.12;46.58
46778;BME280;32536;47.128;8.746;2024-02-26T10:00:30;89839.22;;;10.15;45.62
46778;BME280;32536;47.128;8.746;2024-02-26T10:03:04;89832.56;;;10.20;46.14
46778;BME280;32536;47.128;8.746;2024-02-26T10:05:32;89824.22;;;10.27;45.47
46778;BME280;32536;47.128;8.746;2024-02-26T10:08:01;89834.63;;;10.34;46.13
46778;BME280;32536;47.128;8.746;2024-02-26T10:10:29;89836.75;;;10.39;46.28
46778;BME280;32536;47.128;8.746;2024-02-26T10:12:59;89841.50;;;10.45;45.81
46778;BME280;32536;47.128;8.746;2024-02-26T10:15:27;89836.28;;;10.50;46.20
46778;BME280;32536;47.128;8.746;2024-02-26T10:17:53;89840.75;;;10.53;46.04
46778;BME280;32536;47.128;8.746;2024-02-26T10:20:21;89842.84;;;10.59;46.02
46778;BME280;32536;47.128;8.746;2024-02-26T10:22:49;89844.19;;;10.63;46.47
46778;BME280;32536;47.128;8.746;2024-02-26T10:25:16;89851.75;;;10.65;45.57
46778;BME280;32536;47.128;8.746;2024-02-26T10:27:45;89848.91;;;10.59;45.51
46778;BME280;32536;47.128;8.746;2024-02-26T10:30:20;89838.38;;;10.55;44.48
46778;BME280;32536;47.128;8.746;2024-02-26T10:32:49;89850.56;;;10.56;45.13
46778;BME280;32536;47.128;8.746;2024-02-26T10:35:16;89854.44;;;10.55;45.82
46778;BME280;32536;47.128;8.746;2024-02-26T10:37:44;89855.19;;;10.56;45.44
46778;BME280;32536;47.128;8.746;2024-02-26T10:40:13;89851.59;;;10.59;45.60
46778;BME280;32536;47.128;8.746;2024-02-26T10:42:41;89857.25;;;10.61;44.89
46778;BME280;32536;47.128;8.746;2024-02-26T10:45:09;89860.66;;;10.62;45.54
46778;BME280;32536;47.128;8.746;2024-02-26T10:47:36;89862.47;;;10.65;45.93
46778;BME280;32536;47.128;8.746;2024-02-26T10:50:05;89865.72;;;10.69;45.61
46778;BME280;32536;47.128;8.746;2024-02-26T10:52:33;89859.91;;;10.70;45.70
46778;BME280;32536;47.128;8.746;2024-02-26T10:55:02;89864.38;;;10.73;45.42
46778;BME280;32536;47.128;8.746;2024-02-26T10:57:36;89869.28;;;10.75;44.78
46778;BME280;32536;47.128;8.746;2024-02-26T11:00:06;89854.56;;;10.80;45.82
46778;BME280;32536;47.128;8.746;2024-02-26T11:02:36;89854.69;;;10.85;45.85
46778;BME280;32536;47.128;8.746;2024-02-26T11:05:03;89858.41;;;10.88;45.70
46778;BME280;32536;47.128;8.746;2024-02-26T11:07:31;89861.41;;;10.90;45.48
46778;BME280;32536;47.128;8.746;2024-02-26T11:10:03;89864.06;;;10.90;45.02
46778;BME280;32536;47.128;8.746;2024-02-26T11:12:32;89851.25;;;10.94;45.62
46778;BME280;32536;47.128;8.746;2024-02-26T11:15:04;89857.50;;;11.00;46.04
46778;BME280;32536;47.128;8.746;2024-02-26T11:17:31;89853.47;;;11.05;45.43
46778;BME280;32536;47.128;8.746;2024-02-26T11:20:00;89852.56;;;11.08;45.65
46778;BME280;32536;47.128;8.746;2024-02-26T11:22:29;89853.44;;;11.14;45.79
46778;BME280;32536;47.128;8.746;2024-02-26T11:24:57;89855.53;;;11.19;45.54
46778;BME280;32536;47.128;8.746;2024-02-26T11:27:31;89855.19;;;11.27;44.50
46778;BME280;32536;47.128;8.746;2024-02-26T11:30:26;89860.97;;;11.34;45.29
46778;BME280;32536;47.128;8.746;2024-02-26T11:32:54;89858.28;;;11.34;45.78
46778;BME280;32536;47.128;8.746;2024-02-26T11:35:21;89864.38;;;11.35;45.83
46778;BME280;32536;47.128;8.746;2024-02-26T11:37:56;89857.84;;;11.36;41.66
46778;BME280;32536;47.128;8.746;2024-02-26T11:40:24;89859.63;;;11.39;45.42
46778;BME280;32536;47.128;8.746;2024-02-26T11:42:51;89860.66;;;11.42;45.29
46778;BME280;32536;47.128;8.746;2024-02-26T11:48:25;89858.28;;;11.44;39.95
46778;BME280;32536;47.128;8.746;2024-02-26T11:50:55;89860.03;;;11.47;44.68
46778;BME280;32536;47.128;8.746;2024-02-26T11:53:31;89854.50;;;11.50;44.24
46778;BME280;32536;47.128;8.746;2024-02-26T11:56:30;89852.69;;;11.57;43.54
46778;BME280;32536;47.128;8.746;2024-02-26T11:59:02;89850.72;;;11.66;44.96
46778;BME280;32536;47.128;8.746;2024-02-26T12:04:21;89844.63;;;11.66;44.89
46778;BME280;32536;47.128;8.746;2024-02-26T12:06:55;89850.16;;;11.62;45.41
46778;BME280;32536;47.128;8.746;2024-02-26T12:09:33;89854.03;;;11.52;45.23
46778;BME280;32536;47.128;8.746;2024-02-26T12:12:05;89858.13;;;11.38;44.91
46778;BME280;32536;47.128;8.746;2024-02-26T12:14:33;89850.00;;;11.23;45.27
46778;BME280;32536;47.128;8.746;2024-02-26T12:17:03;89862.81;;;11.19;45.22
46778;BME280;32536;47.128;8.746;2024-02-26T12:19:36;89859.84;;;11.17;45.23
46778;BME280;32536;47.128;8.746;2024-02-26T12:22:03;89864.28;;;11.20;45.12
46778;BME280;32536;47.128;8.746;2024-02-26T12:24:32;89859.38;;;11.18;45.23
46778;BME280;32536;47.128;8.746;2024-02-26T12:26:59;89864.00;;;11.18;45.43
46778;BME280;32536;47.128;8.746;2024-02-26T12:29:26;89864.16;;;11.14;45.79
46778;BME280;32536;47.128;8.746;2024-02-26T12:31:53;89862.97;;;11.15;45.52
46778;BME280;32536;47.128;8.746;2024-02-26T12:34:20;89862.38;;;11.11;45.42
46778;BME280;32536;47.128;8.746;2024-02-26T12:36:46;89858.94;;;11.11;45.42
46778;BME280;32536;47.128;8.746;2024-02-26T12:39:13;89857.75;;;11.12;45.42
46778;BME280;32536;47.128;8.746;2024-02-26T12:41:40;89849.13;;;11.17;45.56
46778;BME280;32536;47.128;8.746;2024-02-26T12:44:10;89854.16;;;11.24;45.79
46778;BME280;32536;47.128;8.746;2024-02-26T12:46:37;89860.25;;;11.25;45.57
46778;BME280;32536;47.128;8.746;2024-02-26T12:49:04;89848.78;;;11.24;45.07
46778;BME280;32536;47.128;8.746;2024-02-26T12:51:33;89847.91;;;11.18;45.43
46778;BME280;32536;47.128;8.746;2024-02-26T12:54:01;89855.53;;;11.19;44.94
46778;BME280;32536;47.128;8.746;2024-02-26T12:56:34;89862.47;;;11.26;44.99
46778;BME280;32536;47.128;8.746;2024-02-26T12:59:01;89868.09;;;11.37;45.16
46778;BME280;32536;47.128;8.746;2024-02-26T13:01:29;89867.34;;;11.46;44.94
46778;BME280;32536;47.128;8.746;2024-02-26T13:03:56;89866.44;;;11.49;45.23
46778;BME280;32536;47.128;8.746;2024-02-26T13:06:24;89860.75;;;11.57;45.02
46778;BME280;32536;47.128;8.746;2024-02-26T13:08:56;89869.47;;;11.66;44.49
46778;BME280;32536;47.128;8.746;2024-02-26T13:11:28;89857.97;;;11.75;45.40
46778;BME280;32536;47.128;8.746;2024-02-26T13:13:56;89865.84;;;11.79;45.18
46778;BME280;32536;47.128;8.746;2024-02-26T13:16:24;89862.44;;;11.78;45.07